Time;durP1;ratioP1;P1;durP2;ratioP2;P2;SDS_P1;SDS_P2;PMS_P1;PMS_P2;Temp;Humidity;BMP_temperature;BMP_pressure;BME280_temperature;BME280_humidity;BME280_pressure;Samples;Min_cycle;Max_cycle;Signal;HPM_P1;HPM_P2
2023/02/15 00:01:52;;;;;;;34.53;23.20;;;5.70;99.90;;;;;;5058603;28;20036;-43
2023/02/15 00:04:20;;;;;;;35.25;22.98;;;5.60;99.90;;;;;;5060487;28;20551;-42
2023/02/15 00:06:46;;;;;;;30.60;20.58;;;5.60;99.90;;;;;;5059407;28;20035;-42
2023/02/15 00:09:12;;;;;;;31.27;21.05;;;5.60;99.90;;;;;;5059989;28;20066;-43
2023/02/15 00:11:42;;;;;;;29.55;19.95;;;5.60;99.90;;;;;;5058579;28;20024;-43
2023/02/15 00:14:18;;;;;;;30.48;20.08;;;5.50;99.90;;;;;;5059412;28;20630;-43
2023/02/15 00:16:45;;;;;;;28.45;20.02;;;5.40;99.90;;;;;;5060239;28;20177;-43
2023/02/15 00:19:12;;;;;;;28.33;19.88;;;5.40;99.90;;;;;;5059446;28;20044;-43
2023/02/15 00:21:39;;;;;;;30.67;19.65;;;5.30;99.90;;;;;;5059474;28;20056;-43
2023/02/15 00:24:07;;;;;;;30.92;19.52;;;5.20;99.90;;;;;;5059435;28;20119;-43
2023/02/15 00:26:33;;;;;;;30.70;19.95;;;5.20;99.90;;;;;;5058259;28;20033;-44
2023/02/15 00:28:59;;;;;;;29.83;20.17;;;5.10;99.90;;;;;;5059727;28;20048;-43
2023/02/15 00:31:26;;;;;;;28.02;20.00;;;5.10;99.90;;;;;;5059395;28;20052;-42
2023/02/15 00:33:51;;;;;;;29.50;19.67;;;5.10;99.90;;;;;;5058749;28;20025;-43
2023/02/15 00:36:17;;;;;;;29.60;19.77;;;5.00;99.90;;;;;;5060150;28;20017;-43
2023/02/15 00:38:42;;;;;;;28.00;19.17;;;5.00;99.90;;;;;;5059640;28;20862;-43
2023/02/15 00:41:09;;;;;;;30.35;20.00;;;4.90;99.90;;;;;;5059037;28;20100;-43
2023/02/15 00:43:35;;;;;;;29.98;18.95;;;4.90;99.90;;;;;;5059140;28;20031;-43
2023/02/15 00:46:02;;;;;;;29.52;20.45;;;4.80;99.90;;;;;;5059120;28;20471;-43
2023/02/15 00:48:28;;;;;;;27.58;18.85;;;4.80;99.90;;;;;;5057682;28;20048;-43
2023/02/15 00:50:56;;;;;;;31.05;21.27;;;4.80;99.90;;;;;;5058136;28;20085;-43
2023/02/15 00:53:22;;;;;;;32.50;21.65;;;4.80;99.90;;;;;;5059669;28;20773;-43
2023/02/15 00:55:47;;;;;;;34.58;22.33;;;4.80;99.90;;;;;;5058654;28;20120;-43
2023/02/15 00:58:14;;;;;;;33.78;21.98;;;4.80;99.90;;;;;;5059565;28;20021;-43
2023/02/15 01:00:41;;;;;;;32.25;21.48;;;4.80;99.90;;;;;;5057658;28;20534;-42
2023/02/15 01:03:07;;;;;;;32.92;21.60;;;4.90;99.90;;;;;;5056773;28;20619;-42
2023/02/15 01:05:33;;;;;;;32.40;21.38;;;4.90;99.90;;;;;;5059870;28;20482;-43
2023/02/15 01:07:59;;;;;;;31.50;20.42;;;4.90;99.90;;;;;;5059054;28;20620;-42
2023/02/15 01:10:26;;;;;;;31.95;21.15;;;4.90;99.90;;;;;;5059566;28;20031;-42
2023/02/15 01:12:52;;;;;;;31.08;20.33;;;4.90;99.90;;;;;;5057216;28;20804;-43
2023/02/15 01:15:18;;;;;;;30.83;20.85;;;4.90;99.90;;;;;;5058987;28;20024;-43
2023/02/15 01:17:49;;;;;;;31.83;20.65;;;4.90;99.90;;;;;;5059884;28;20734;-43
2023/02/15 01:20:15;;;;;;;29.83;19.83;;;4.80;99.90;;;;;;5058972;28;20056;-43
2023/02/15 01:22:41;;;;;;;31.80;21.75;;;4.80;99.90;;;;;;5057137;28;20131;-43
2023/02/15 01:25:06;;;;;;;33.78;22.35;;;4.80;99.90;;;;;;5057566;28;20032;-43
2023/02/15 01:27:32;;;;;;;32.60;22.42;;;4.80;99.90;;;;;;5058757;28;20038;-43
2023/02/15 01:29:57;;;;;;;35.25;21.10;;;4.80;99.90;;;;;;5057761;28;20046;-42
2023/02/15 01:32:23;;;;;;;32.80;22.08;;;4.90;99.90;;;;;;5058866;28;20103;-43
2023/02/15 01:34:49;;;;;;;32.28;21.73;;;4.90;99.90;;;;;;5057610;28;20131;-44
2023/02/15 01:37:17;;;;;;;34.63;21.88;;;4.90;99.90;;;;;;5057042;28;20024;-43
2023/02/15 01:39:43;;;;;;;32.25;20.73;;;4.90;99.90;;;;;;5058553;28;20697;-43
2023/02/15 01:42:11;;;;;;;29.67;19.55;;;4.90;99.90;;;;;;5058323;28;20035;-43
2023/02/15 01:44:48;;;;;;;28.55;20.23;;;4.90;99.90;;;;;;5057885;28;20054;-43
2023/02/15 01:47:42;;;;;;;28.27;20.23;;;4.90;99.90;;;;;;5058398;28;20075;-44
2023/02/15 01:50:30;;;;;;;28.75;19.13;;;4.80;99.90;;;;;;5038983;28;20033;-42
2023/02/15 01:53:02;;;;;;;31.27;20.08;;;4.80;99.90;;;;;;5057397;28;20028;-43
2023/02/15 01:55:33;;;;;;;28.30;18.80;;;4.80;99.90;;;;;;5057756;28;20032;-42
2023/02/15 01:58:00;;;;;;;29.90;19.70;;;4.80;99.90;;;;;;5056047;28;20020;-43
2023/02/15 02:00:26;;;;;;;27.77;19.30;;;4.80;99.90;;;;;;5057199;28;20032;-42
2023/02/15 02:02:55;;;;;;;30.13;20.17;;;4.80;99.90;;;;;;5057657;28;20044;-43
2023/02/15 02:05:21;;;;;;;29.92;19.42;;;4.70;99.90;;;;;;5056766;28;20033;-43
2023/02/15 02:07:50;;;;;;;28.05;18.65;;;4.80;99.90;;;;;;5057799;28;20079;-43
2023/02/15 02:10:22;;;;;;;27.33;18.63;;;4.80;99.90;;;;;;5055362;28;20767;-42
2023/02/15 02:12:50;;;;;;;28.80;19.45;;;4.70;99.90;;;;;;5056780;28;20072;-42
2023/02/15 02:15:16;;;;;;;26.15;18.48;;;4.70;99.90;;;;;;5057437;28;20098;-42
2023/02/15 02:18:12;;;;;;;24.55;17.95;;;4.70;99.90;;;;;;5058614;28;20032;-42
2023/02/15 02:21:03;;;;;;;23.75;16.63;;;4.60;99.90;;;;;;5055187;28;20029;-42
2023/02/15 02:23:38;;;;;;;24.92;16.92;;;4.60;99.90;;;;;;5041006;28;20688;-42
2023/02/15 02:26:33;;;;;;;25.92;17.08;;;4.50;99.90;;;;;;5057583;28;20499;-43
2023/02/15 02:29:17;;;;;;;25.30;16.73;;;4.50;99.90;;;;;;5057507;28;20044;-44
2023/02/15 02:32:15;;;;;;;27.58;17.85;;;4.40;99.90;;;;;;5057850;28;20845;-43
2023/02/15 02:35:17;;;;;;;25.65;17.65;;;4.40;99.90;;;;;;5057050;28;20024;-43
2023/02/15 02:38:08;;;;;;;24.20;17.05;;;4.40;99.90;;;;;;5057155;28;20033;-43
2023/02/15 02:40:49;;;;;;;26.45;17.15;;;4.30;99.90;;;;;;5056066;28;20032;-44
2023/02/15 02:43:44;;;;;;;26.77;16.60;;;4.30;99.90;;;;;;5057677;28;20032;-43
2023/02/15 02:46:33;;;;;;;27.73;18.15;;;4.20;99.90;;;;;;5059055;28;20685;-43
2023/02/15 02:48:59;;;;;;;25.25;17.00;;;4.20;99.90;;;;;;5061216;28;20036;-43
2023/02/15 02:51:24;;;;;;;25.90;18.40;;;4.10;99.90;;;;;;5061076;28;20058;-44
2023/02/15 02:53:53;;;;;;;25.05;17.25;;;4.10;99.90;;;;;;5060549;28;20516;-43
2023/02/15 02:56:26;;;;;;;27.02;17.77;;;4.10;99.90;;;;;;5060627;28;20021;-44
2023/02/15 02:58:59;;;;;;;26.63;18.23;;;4.10;99.90;;;;;;5061332;28;20640;-43
2023/02/15 03:01:41;;;;;;;31.35;19.88;;;4.10;99.90;;;;;;5060107;28;20036;-42
2023/02/15 03:04:17;;;;;;;29.13;19.42;;;4.10;99.90;;;;;;5061843;28;20777;-43
2023/02/15 03:06:50;;;;;;;30.65;20.27;;;4.10;99.90;;;;;;5061635;28;20029;-43
2023/02/15 03:09:22;;;;;;;27.33;18.67;;;4.10;99.90;;;;;;5061148;28;20887;-43
2023/02/15 03:11:48;;;;;;;29.85;20.15;;;4.10;99.90;;;;;;5061359;28;20114;-44
2023/02/15 03:14:16;;;;;;;32.05;20.50;;;4.10;99.90;;;;;;5061613;28;20036;-43
2023/02/15 03:16:46;;;;;;;29.50;20.08;;;4.10;99.90;;;;;;5059819;28;20040;-43
2023/02/15 03:19:16;;;;;;;32.22;21.27;;;4.10;99.90;;;;;;5061396;28;20028;-43
2023/02/15 03:22:03;;;;;;;31.95;21.27;;;4.10;99.90;;;;;;5060632;28;20120;-44
2023/02/15 03:24:34;;;;;;;33.67;21.25;;;4.10;99.90;;;;;;5041337;28;20715;-43
2023/02/15 03:27:02;;;;;;;34.10;21.60;;;4.00;99.90;;;;;;5056313;28;20033;-43
2023/02/15 03:29:29;;;;;;;31.48;21.15;;;4.10;99.90;;;;;;5060399;28;20492;-43
2023/02/15 03:32:04;;;;;;;33.58;20.42;;;4.00;99.90;;;;;;5059888;28;20046;-42
2023/02/15 03:34:30;;;;;;;34.35;22.60;;;4.10;99.90;;;;;;5061614;28;20574;-43
2023/02/15 03:37:07;;;;;;;33.67;22.27;;;4.00;99.90;;;;;;5058870;28;20086;-43
2023/02/15 03:39:41;;;;;;;31.00;20.65;;;4.00;99.90;;;;;;5061796;28;20406;-43
2023/02/15 03:42:19;;;;;;;33.20;20.90;;;4.00;99.90;;;;;;5061463;28;20020;-42
2023/02/15 03:45:03;;;;;;;30.67;20.98;;;4.00;99.90;;;;;;5059216;28;20158;-42
2023/02/15 03:47:35;;;;;;;28.60;19.13;;;4.00;99.90;;;;;;5060357;28;20048;-43
2023/02/15 03:51:33;;;;;;;31.70;20.02;;;3.90;99.90;;;;;;5059225;28;20118;-43
2023/02/15 03:52:58;;;;;;;26.73;18.48;;;3.90;99.90;;;;;;5060145;28;20062;-43
2023/02/15 03:55:24;;;;;;;31.30;20.52;;;3.90;99.90;;;;;;5059223;28;20028;-43
2023/02/15 04:03:39;;;;;;;30.25;18.05;;;3.80;99.90;;;;;;5060122;28;20059;-42
2023/02/15 04:06:04;;;;;;;29.35;19.70;;;3.80;99.90;;;;;;5040467;28;20029;-42
2023/02/15 04:11:14;;;;;;;29.00;20.48;;;3.80;99.90;;;;;;5040268;28;20558;-43
2023/02/15 04:13:40;;;;;;;26.98;19.27;;;3.80;99.90;;;;;;5054873;28;20036;-42
2023/02/15 04:16:06;;;;;;;28.52;20.02;;;3.70;99.90;;;;;;5060157;28;20104;-42
2023/02/15 04:26:48;;;;;;;28.60;19.85;;;3.70;99.90;;;;;;5050901;28;20047;-44
2023/02/15 04:29:15;;;;;;;32.60;21.50;;;3.60;99.90;;;;;;5059819;28;20732;-44
2023/02/15 04:31:42;;;;;;;31.42;20.40;;;3.60;99.90;;;;;;5058826;28;20042;-43
2023/02/15 04:34:08;;;;;;;31.42;20.75;;;3.60;99.90;;;;;;5058462;28;20642;-43
2023/02/15 04:36:33;;;;;;;29.52;19.63;;;3.60;99.90;;;;;;5059787;28;20034;-43
2023/02/15 04:38:59;;;;;;;30.92;19.38;;;3.60;99.90;;;;;;5059643;28;20387;-43
2023/02/15 04:41:25;;;;;;;27.35;19.05;;;3.60;99.90;;;;;;5060160;28;20033;-43
2023/02/15 04:43:50;;;;;;;29.48;19.88;;;3.60;99.90;;;;;;5059092;28;20039;-42
2023/02/15 04:46:16;;;;;;;31.17;18.60;;;3.60;99.90;;;;;;5057144;28;20028;-44
2023/02/15 04:48:41;;;;;;;29.67;18.20;;;3.50;99.90;;;;;;5058723;28;20605;-43
2023/02/15 04:51:07;;;;;;;29.10;18.67;;;3.50;99.90;;;;;;5059139;28;20029;-43
2023/02/15 04:53:36;;;;;;;28.33;18.45;;;3.50;99.90;;;;;;5058406;28;20031;-43
2023/02/15 04:56:02;;;;;;;28.25;18.02;;;3.50;99.90;;;;;;5059649;28;20025;-43
2023/02/15 04:58:28;;;;;;;26.42;18.33;;;3.50;99.90;;;;;;5059456;28;20032;-44
2023/02/15 05:00:57;;;;;;;29.48;18.65;;;3.40;99.90;;;;;;5058058;28;20101;-44
2023/02/15 05:03:22;;;;;;;25.33;17.35;;;3.40;99.90;;;;;;5059163;28;20044;-43
2023/02/15 05:05:48;;;;;;;30.17;18.45;;;3.40;99.90;;;;;;5058469;28;20885;-43
2023/02/15 05:08:14;;;;;;;27.75;17.90;;;3.40;99.90;;;;;;5057391;28;20524;-43
2023/02/15 05:10:39;;;;;;;28.02;18.42;;;3.40;99.90;;;;;;5058934;28;20020;-43
2023/02/15 05:13:05;;;;;;;25.70;18.42;;;3.40;99.90;;;;;;5058794;28;20064;-43
2023/02/15 05:15:30;;;;;;;27.35;18.08;;;3.30;99.90;;;;;;5058381;28;20119;-42
2023/02/15 05:17:56;;;;;;;29.23;18.70;;;3.30;99.90;;;;;;5059122;28;20035;-44
2023/02/15 05:20:21;;;;;;;31.48;20.73;;;3.30;99.90;;;;;;5059619;28;20021;-43
2023/02/15 05:22:47;;;;;;;35.70;22.13;;;3.30;99.90;;;;;;5058572;28;20024;-43
2023/02/15 05:30:42;;;;;;;31.88;20.75;;;3.20;99.90;;;;;;5052289;28;20051;-43
2023/02/15 05:33:08;;;;;;;32.33;20.55;;;3.20;99.90;;;;;;5059116;28;20033;-43
2023/02/15 05:35:34;;;;;;;30.40;20.23;;;3.20;99.90;;;;;;5057257;28;20017;-43
2023/02/15 05:38:00;;;;;;;31.17;20.90;;;3.20;99.90;;;;;;5057528;28;20024;-43
2023/02/15 05:40:28;;;;;;;32.13;21.23;;;3.20;99.90;;;;;;5044714;28;20024;-43
2023/02/15 05:42:54;;;;;;;31.33;19.52;;;3.10;99.90;;;;;;5057367;28;20905;-42
2023/02/15 05:45:20;;;;;;;30.27;19.52;;;3.10;99.90;;;;;;5059725;28;20013;-44
2023/02/15 05:47:46;;;;;;;30.75;19.50;;;3.10;99.90;;;;;;5057703;28;20124;-43
2023/02/15 05:50:12;;;;;;;30.55;19.17;;;3.10;99.90;;;;;;5055263;28;20146;-42
2023/02/15 05:52:38;;;;;;;29.83;19.17;;;3.10;99.90;;;;;;5058208;28;20164;-43
2023/02/15 05:55:04;;;;;;;28.90;18.45;;;3.10;99.90;;;;;;5057793;28;20547;-44
2023/02/15 05:57:30;;;;;;;29.98;18.63;;;3.10;99.90;;;;;;5057755;28;20020;-42
2023/02/15 05:59:56;;;;;;;27.33;18.58;;;3.10;99.90;;;;;;5057382;28;20040;-43
2023/02/15 06:02:22;;;;;;;28.20;18.05;;;3.00;99.90;;;;;;5055344;28;20043;-42
2023/02/15 06:04:47;;;;;;;26.55;18.35;;;3.10;99.90;;;;;;5058389;28;20153;-42
2023/02/15 06:07:13;;;;;;;28.52;18.23;;;3.10;99.90;;;;;;5058911;28;20021;-42
2023/02/15 06:09:39;;;;;;;29.85;18.85;;;3.00;99.90;;;;;;5058334;28;20123;-43
2023/02/15 06:12:04;;;;;;;27.15;17.80;;;3.00;99.90;;;;;;5056935;28;20023;-43
2023/02/15 06:14:30;;;;;;;30.48;18.90;;;2.90;99.90;;;;;;5058660;28;20036;-43
2023/02/15 06:16:56;;;;;;;28.65;18.05;;;2.90;99.90;;;;;;5057426;28;20174;-43
2023/02/15 06:19:22;;;;;;;27.88;18.70;;;2.90;99.90;;;;;;5058797;28;20126;-42
2023/02/15 06:21:48;;;;;;;30.20;19.25;;;2.90;99.90;;;;;;5059834;28;20094;-43
2023/02/15 06:24:14;;;;;;;31.23;19.33;;;2.90;99.90;;;;;;5061694;28;20052;-43
2023/02/15 06:26:39;;;;;;;31.10;20.40;;;2.90;99.90;;;;;;5058144;28;20587;-43
2023/02/15 06:29:08;;;;;;;28.92;19.42;;;2.90;99.90;;;;;;5062414;28;20028;-43
2023/02/15 06:31:40;;;;;;;27.52;18.35;;;2.90;99.90;;;;;;5061137;28;20028;-43
2023/02/15 06:34:05;;;;;;;30.60;19.58;;;2.80;99.90;;;;;;5058742;28;20555;-42
2023/02/15 06:36:34;;;;;;;30.98;19.10;;;2.80;99.90;;;;;;5060895;28;20029;-42
2023/02/15 06:38:59;;;;;;;28.20;18.67;;;2.80;99.90;;;;;;5059915;28;20483;-43
2023/02/15 06:41:25;;;;;;;29.73;18.95;;;2.80;99.90;;;;;;5061104;28;20041;-44
2023/02/15 06:43:51;;;;;;;28.95;19.50;;;2.80;99.90;;;;;;5061238;28;20048;-43
2023/02/15 06:46:20;;;;;;;28.83;18.90;;;2.80;99.90;;;;;;5058891;28;20040;-44
2023/02/15 06:48:48;;;;;;;28.77;19.15;;;2.80;99.90;;;;;;5061857;28;20181;-44
2023/02/15 06:51:17;;;;;;;28.13;19.50;;;2.80;99.90;;;;;;5062027;28;20139;-44
2023/02/15 06:53:43;;;;;;;30.30;19.48;;;2.70;99.90;;;;;;5060714;28;20032;-44
2023/02/15 06:56:09;;;;;;;31.40;20.48;;;2.70;99.90;;;;;;5062722;28;20024;-44
2023/02/15 06:58:39;;;;;;;31.75;20.30;;;2.70;99.90;;;;;;5060893;28;20036;-43
2023/02/15 07:01:05;;;;;;;33.88;22.30;;;2.70;99.90;;;;;;5061145;28;20031;-43
2023/02/15 07:03:34;;;;;;;35.17;22.10;;;2.70;99.90;;;;;;5062005;28;20045;-44
2023/02/15 07:06:07;;;;;;;34.72;22.60;;;2.70;99.90;;;;;;5061719;28;20025;-44
2023/02/15 07:08:36;;;;;;;35.45;23.45;;;2.70;99.90;;;;;;5061516;28;20040;-44
2023/02/15 07:13:47;;;;;;;35.00;22.55;;;2.70;99.90;;;;;;5061410;28;20510;-44
2023/02/15 07:16:13;;;;;;;35.90;22.70;;;2.70;99.90;;;;;;5061425;28;20033;-43
2023/02/15 07:18:39;;;;;;;34.92;22.55;;;2.70;99.90;;;;;;5060649;28;20044;-43
2023/02/15 07:21:07;;;;;;;35.28;22.30;;;2.70;99.90;;;;;;5060951;28;20027;-43
2023/02/15 07:23:37;;;;;;;34.92;22.88;;;2.70;99.90;;;;;;5061631;28;20035;-43
2023/02/15 07:26:04;;;;;;;31.25;19.88;;;2.70;99.90;;;;;;5060735;28;20024;-42
2023/02/15 07:28:30;;;;;;;34.85;22.40;;;2.80;99.90;;;;;;5058417;28;20036;-43
2023/02/15 07:30:57;;;;;;;32.65;20.98;;;2.80;99.90;;;;;;5059375;28;20021;-45
2023/02/15 07:33:22;;;;;;;33.78;21.85;;;2.80;99.90;;;;;;5057825;28;20024;-43
2023/02/15 07:35:50;;;;;;;34.08;21.23;;;2.80;99.90;;;;;;5060892;28;20043;-43
2023/02/15 07:38:16;;;;;;;30.25;20.25;;;2.80;99.90;;;;;;5061169;28;20028;-43
2023/02/15 07:40:41;;;;;;;28.85;19.17;;;2.80;99.90;;;;;;5061700;28;20040;-43
2023/02/15 07:43:07;;;;;;;28.70;18.55;;;2.80;99.90;;;;;;5062167;28;20228;-43
2023/02/15 07:45:36;;;;;;;27.55;18.58;;;2.90;99.90;;;;;;5062218;28;20013;-43
2023/02/15 07:48:02;;;;;;;32.08;20.63;;;2.90;99.90;;;;;;5059661;28;20055;-43
2023/02/15 07:50:28;;;;;;;30.98;18.90;;;2.90;99.90;;;;;;5060354;28;20039;-43
2023/02/15 07:52:54;;;;;;;27.58;18.92;;;3.00;99.90;;;;;;5060447;28;20045;-43
2023/02/15 07:55:19;;;;;;;29.73;19.27;;;3.00;99.90;;;;;;5057653;28;20107;-44
2023/02/15 07:57:46;;;;;;;29.83;19.52;;;3.00;99.90;;;;;;5059939;28;20036;-44
2023/02/15 08:00:13;;;;;;;31.67;19.58;;;3.00;99.90;;;;;;5061563;28;20066;-44
2023/02/15 08:02:39;;;;;;;29.02;18.85;;;3.10;99.90;;;;;;5061067;28;20670;-43
2023/02/15 08:05:05;;;;;;;29.33;20.02;;;3.10;99.90;;;;;;5060068;28;20048;-44
2023/02/15 08:07:31;;;;;;;31.05;20.20;;;3.20;99.90;;;;;;5061471;28;20032;-43
2023/02/15 08:09:56;;;;;;;29.52;19.92;;;3.20;99.90;;;;;;5061427;28;20036;-43
2023/02/15 08:12:22;;;;;;;28.05;18.38;;;3.20;99.90;;;;;;5061160;28;20052;-43
2023/02/15 08:14:47;;;;;;;31.98;20.63;;;3.20;99.90;;;;;;5060802;28;20127;-43
2023/02/15 08:17:13;;;;;;;30.80;19.33;;;3.30;99.90;;;;;;5060214;28;20025;-43
2023/02/15 08:19:39;;;;;;;29.60;19.40;;;3.30;99.90;;;;;;5061764;28;20029;-43
2023/02/15 08:22:06;;;;;;;31.00;20.05;;;3.40;99.90;;;;;;5061094;28;20345;-43
2023/02/15 08:24:34;;;;;;;32.13;20.17;;;3.40;99.90;;;;;;5060487;28;20036;-43
2023/02/15 08:27:02;;;;;;;32.15;20.35;;;3.40;99.90;;;;;;5060847;28;20040;-43
2023/02/15 08:29:29;;;;;;;31.23;20.10;;;3.50;99.90;;;;;;5061079;28;20036;-43
2023/02/15 08:31:58;;;;;;;31.33;20.05;;;3.50;99.90;;;;;;5060095;28;20140;-43
2023/02/15 08:34:24;;;;;;;28.58;18.90;;;3.60;99.90;;;;;;5061736;28;20128;-43
2023/02/15 08:36:50;;;;;;;27.88;18.00;;;3.60;99.90;;;;;;5060354;28;20021;-43
2023/02/15 08:39:16;;;;;;;27.50;18.55;;;3.60;99.90;;;;;;5060439;28;20031;-43
2023/02/15 08:41:44;;;;;;;29.38;18.67;;;3.70;99.90;;;;;;5060868;28;20032;-43
2023/02/15 08:44:10;;;;;;;30.00;19.15;;;3.70;99.90;;;;;;5059766;28;20035;-43
2023/02/15 08:46:38;;;;;;;27.13;18.42;;;3.80;99.90;;;;;;5060156;28;20028;-42
2023/02/15 08:49:04;;;;;;;25.92;17.33;;;3.80;99.90;;;;;;5061004;28;20036;-43
2023/02/15 08:51:36;;;;;;;29.55;18.67;;;3.80;99.90;;;;;;5060760;28;20452;-43
2023/02/15 08:54:09;;;;;;;28.70;19.23;;;3.90;99.90;;;;;;5060331;28;20487;-42
2023/02/15 08:56:37;;;;;;;27.73;17.90;;;4.00;99.90;;;;;;5060290;28;21379;-44
2023/02/15 08:59:04;;;;;;;27.35;17.33;;;4.00;99.90;;;;;;5060985;28;20016;-44
2023/02/15 09:01:32;;;;;;;30.88;18.73;;;4.10;99.90;;;;;;5059778;28;20025;-43
2023/02/15 09:04:04;;;;;;;29.60;18.75;;;4.10;99.90;;;;;;5059915;28;20044;-43
2023/02/15 09:06:30;;;;;;;27.97;19.13;;;4.20;99.90;;;;;;5060064;28;20081;-43
2023/02/15 09:08:56;;;;;;;30.85;20.15;;;4.30;99.90;;;;;;5058962;28;20182;-42
2023/02/15 09:11:24;;;;;;;31.45;20.20;;;4.30;99.90;;;;;;5060032;28;20024;-42
2023/02/15 09:13:53;;;;;;;30.02;19.65;;;4.40;99.90;;;;;;5058960;28;20029;-44
2023/02/15 09:16:20;;;;;;;27.48;18.98;;;4.50;99.90;;;;;;5060499;28;20029;-43
2023/02/15 09:18:46;;;;;;;30.50;19.73;;;4.50;99.90;;;;;;5059143;28;20066;-43
2023/02/15 09:21:20;;;;;;;32.03;20.45;;;4.60;99.90;;;;;;5059342;28;20629;-43
2023/02/15 09:23:49;;;;;;;30.90;20.42;;;4.70;99.90;;;;;;5059260;28;20055;-43
2023/02/15 09:26:17;;;;;;;28.75;19.35;;;4.80;99.90;;;;;;5060217;28;20851;-43
2023/02/15 09:28:43;;;;;;;30.63;20.45;;;4.80;99.90;;;;;;5059017;28;20050;-42
2023/02/15 09:31:10;;;;;;;30.27;18.67;;;4.80;99.90;;;;;;5060122;28;20029;-43
2023/02/15 09:33:37;;;;;;;29.17;18.75;;;4.90;99.90;;;;;;5059722;28;20492;-43
2023/02/15 09:36:04;;;;;;;27.92;18.42;;;4.90;99.90;;;;;;5059800;28;20527;-42
2023/02/15 09:38:32;;;;;;;25.75;17.38;;;5.00;99.90;;;;;;5059871;28;20037;-42
2023/02/15 09:41:25;;;;;;;27.27;18.13;;;5.00;99.90;;;;;;5060232;28;20028;-43
2023/02/15 09:44:13;;;;;;;28.38;18.40;;;5.00;99.90;;;;;;5058766;28;20115;-43
2023/02/15 09:46:59;;;;;;;29.00;18.85;;;5.10;99.90;;;;;;5059299;28;20127;-43
2023/02/15 09:49:43;;;;;;;27.95;17.95;;;5.10;99.90;;;;;;5058816;28;20480;-43
2023/02/15 09:52:08;;;;;;;30.05;18.50;;;5.20;99.90;;;;;;5059752;28;20849;-43
2023/02/15 09:55:25;;;;;;;28.23;18.98;;;5.20;99.90;;;;;;5059055;28;20035;-43
2023/02/15 09:58:11;;;;;;;23.58;16.65;;;5.30;99.90;;;;;;5005021;28;20118;-43
2023/02/15 10:01:06;;;;;;;25.58;16.83;;;5.40;99.90;;;;;;5059045;28;20101;-43
2023/02/15 10:03:56;;;;;;;24.75;15.38;;;5.40;99.90;;;;;;5059569;28;20048;-44
2023/02/15 10:06:34;;;;;;;26.15;17.50;;;5.50;99.90;;;;;;5060797;28;20070;-43
2023/02/15 10:09:06;;;;;;;24.77;16.85;;;5.60;99.90;;;;;;5060070;28;20078;-43
2023/02/15 10:11:52;;;;;;;26.30;16.48;;;5.70;99.90;;;;;;5059526;28;20032;-44
2023/02/15 10:14:20;;;;;;;24.83;17.15;;;5.70;99.90;;;;;;5059865;28;20161;-44
2023/02/15 10:16:55;;;;;;;25.00;17.42;;;5.80;99.90;;;;;;5058434;28;20488;-43
2023/02/15 10:19:32;;;;;;;25.10;16.42;;;5.90;99.90;;;;;;5059969;28;20068;-44
2023/02/15 10:22:08;;;;;;;26.55;17.50;;;5.90;99.90;;;;;;5058842;28;20840;-44
2023/02/15 10:24:55;;;;;;;28.35;18.00;;;6.00;99.90;;;;;;5059096;28;20033;-44
2023/02/15 10:27:21;;;;;;;25.73;17.52;;;6.10;99.90;;;;;;5049530;28;20421;-44
2023/02/15 10:30:07;;;;;;;24.95;16.63;;;6.10;99.90;;;;;;5059279;28;20484;-44
2023/02/15 10:32:41;;;;;;;25.02;16.92;;;6.10;99.90;;;;;;5048946;28;20068;-44
2023/02/15 10:35:20;;;;;;;24.45;16.00;;;6.20;99.90;;;;;;5058980;28;20021;-44
2023/02/15 10:38:12;;;;;;;25.02;16.00;;;6.30;99.90;;;;;;5049815;28;20024;-44
2023/02/15 10:40:46;;;;;;;25.10;17.27;;;6.30;99.90;;;;;;5054248;28;20036;-43
2023/02/15 10:43:30;;;;;;;27.40;17.75;;;6.40;99.90;;;;;;5058943;28;20028;-43
2023/02/15 10:46:03;;;;;;;24.08;17.17;;;6.50;99.90;;;;;;5058276;28;20020;-43
2023/02/15 10:48:51;;;;;;;26.38;17.27;;;6.60;99.90;;;;;;5058977;28;20838;-43
2023/02/15 10:51:45;;;;;;;24.58;16.33;;;6.60;99.90;;;;;;5058936;28;20144;-43
2023/02/15 10:54:32;;;;;;;24.20;16.15;;;6.70;99.90;;;;;;5047428;28;20049;-43
2023/02/15 10:57:04;;;;;;;32.00;19.95;;;6.80;99.90;;;;;;5058818;28;20021;-43
2023/02/15 10:59:53;;;;;;;24.60;17.25;;;6.80;99.90;;;;;;5058680;28;20031;-43
2023/02/15 11:02:39;;;;;;;24.55;16.70;;;6.90;99.90;;;;;;5058777;28;20060;-43
2023/02/15 11:05:37;;;;;;;25.75;17.38;;;7.00;99.90;;;;;;5038833;28;20065;-43
2023/02/15 11:08:07;;;;;;;25.80;17.27;;;7.10;99.90;;;;;;5060211;28;20064;-43
2023/02/15 11:10:35;;;;;;;26.17;18.02;;;7.20;99.90;;;;;;5063397;28;20025;-42
2023/02/15 11:13:08;;;;;;;29.98;18.92;;;7.30;99.90;;;;;;5061851;28;20112;-43
2023/02/15 11:15:36;;;;;;;;;;;7.40;99.90;;;;;;5062649;28;20028;-43
2023/02/15 11:18:12;;;;;;;24.10;16.10;;;7.50;99.90;;;;;;5062288;28;19912;-43
2023/02/15 11:20:59;;;;;;;23.45;15.90;;;7.50;99.90;;;;;;5061400;28;20035;-43
2023/02/15 11:23:27;;;;;;;28.58;19.10;;;7.60;99.90;;;;;;5062440;28;20113;-43
2023/02/15 11:25:58;;;;;;;25.25;17.08;;;7.70;99.90;;;;;;5062622;28;20036;-43
2023/02/15 11:28:39;;;;;;;29.60;18.42;;;7.80;99.90;;;;;;5061728;28;20039;-44
2023/02/15 11:31:21;;;;;;;28.02;19.35;;;7.90;99.90;;;;;;5062522;28;20032;-44
2023/02/15 11:33:52;;;;;;;28.55;19.23;;;8.00;99.90;;;;;;5062157;28;20039;-43
2023/02/15 11:36:25;;;;;;;27.00;17.55;;;8.00;99.90;;;;;;5062022;28;20085;-44
2023/02/15 11:38:59;;;;;;;27.27;18.50;;;8.10;99.90;;;;;;5061174;28;20024;-44
2023/02/15 11:41:29;;;;;;;21.38;14.82;;;8.10;99.90;;;;;;5062048;28;20976;-44
2023/02/15 11:44:01;;;;;;;26.08;18.55;;;8.20;99.90;;;;;;5062248;28;20170;-44
2023/02/15 11:46:26;;;;;;;28.75;18.40;;;8.30;99.90;;;;;;5062428;28;20028;-44
2023/02/15 11:48:52;;;;;;;30.17;19.50;;;8.30;99.90;;;;;;5060869;28;20067;-44
2023/02/15 11:51:20;;;;;;;30.95;20.73;;;8.50;99.90;;;;;;5062334;28;20023;-44
2023/02/15 11:53:50;;;;;;;33.35;21.38;;;8.60;99.90;;;;;;5060925;28;20376;-44
2023/02/15 11:56:24;;;;;;;31.13;19.30;;;8.70;99.90;;;;;;5061556;28;20028;-44
2023/02/15 11:59:01;;;;;;;29.52;20.80;;;8.90;99.90;;;;;;5061215;28;20036;-43
2023/02/15 12:01:32;;;;;;;32.30;21.08;;;8.90;99.90;;;;;;5061353;28;20064;-43
2023/02/15 12:04:35;;;;;;;30.63;20.73;;;9.00;99.90;;;;;;5060255;28;20051;-43
2023/02/15 12:07:15;;;;;;;30.55;18.98;;;9.10;99.90;;;;;;5036525;28;20040;-43
2023/02/15 12:10:06;;;;;;;29.27;19.40;;;9.10;99.90;;;;;;5057544;28;20051;-43
2023/02/15 12:12:34;;;;;;;29.95;20.15;;;9.10;99.90;;;;;;5061916;28;20511;-43
2023/02/15 12:15:03;;;;;;;31.48;21.80;;;9.10;99.90;;;;;;5061386;28;20078;-43
2023/02/15 12:17:40;;;;;;;30.85;20.27;;;9.20;99.90;;;;;;5060927;28;20140;-43
2023/02/15 12:20:14;;;;;;;40.67;20.77;;;9.20;99.90;;;;;;5061734;28;20032;-43
2023/02/15 12:22:50;;;;;;;28.75;19.67;;;9.30;99.90;;;;;;5061217;28;20501;-43
2023/02/15 12:25:32;;;;;;;27.65;18.67;;;9.30;99.90;;;;;;5060676;28;20106;-43
2023/02/15 12:27:58;;;;;;;29.20;19.90;;;9.30;99.90;;;;;;5060520;28;20063;-43
2023/02/15 12:30:36;;;;;;;29.02;19.70;;;9.30;99.90;;;;;;5060151;28;20115;-43
2023/02/15 12:33:15;;;;;;;26.85;18.85;;;9.40;99.90;;;;;;5061659;28;20106;-42
2023/02/15 12:35:42;;;;;;;27.20;19.48;;;9.50;99.90;;;;;;5060433;28;20024;-43
2023/02/15 12:38:11;;;;;;;29.58;19.75;;;9.50;99.90;;;;;;5060384;28;20143;-43
2023/02/15 12:40:38;;;;;;;27.58;19.02;;;9.60;99.90;;;;;;5060260;28;20120;-42
2023/02/15 12:43:08;;;;;;;30.88;20.35;;;9.70;99.90;;;;;;5060343;28;20036;-43
2023/02/15 12:45:36;;;;;;;28.02;20.23;;;9.70;99.90;;;;;;5060143;28;20149;-43
2023/02/15 12:48:18;;;;;;;35.60;21.75;;;9.80;99.90;;;;;;5060559;28;20934;-43
2023/02/15 12:50:49;;;;;;;29.50;20.38;;;9.90;99.90;;;;;;5060279;28;20032;-44
2023/02/15 12:53:30;;;;;;;31.17;20.65;;;10.00;99.90;;;;;;5060576;28;20051;-44
2023/02/15 12:56:04;;;;;;;30.40;20.50;;;10.00;99.90;;;;;;5059918;28;20107;-43
2023/02/15 12:58:35;;;;;;;31.67;22.00;;;10.10;99.90;;;;;;5059654;28;20031;-43
2023/02/15 13:01:16;;;;;;;31.52;21.35;;;10.10;99.90;;;;;;5060279;28;20040;-44
2023/02/15 13:03:59;;;;;;;34.72;21.95;;;10.20;99.90;;;;;;5060141;28;20109;-43
2023/02/15 13:06:27;;;;;;;32.70;21.75;;;10.20;99.90;;;;;;5060300;28;20033;-43
2023/02/15 13:09:06;;;;;;;29.40;20.17;;;10.30;99.90;;;;;;5060400;28;20554;-43
2023/02/15 13:11:34;;;;;;;27.63;20.50;;;10.30;99.90;;;;;;5060322;28;20340;-43
2023/02/15 13:14:02;;;;;;;26.60;18.92;;;10.30;99.90;;;;;;5059902;28;20093;-44
2023/02/15 13:16:36;;;;;;;30.13;20.02;;;10.30;99.90;;;;;;5060841;28;20032;-43
2023/02/15 13:19:10;;;;;;;23.65;17.35;;;10.30;99.90;;;;;;5060153;28;20085;-43
2023/02/15 13:21:39;;;;;;;25.85;18.42;;;10.30;99.90;;;;;;5060098;28;20025;-44